Time;durP1;ratioP1;P1;durP2;ratioP2;P2;SDS_P1;SDS_P2;PMS_P1;PMS_P2;Temp;Humidity;BMP_temperature;BMP_pressure;BME280_temperature;BME280_humidity;BME280_pressure;Samples;Min_cycle;Max_cycle;Signal;HPM_P1;HPM_P2
2022/10/08 00:01:34;;;;;;;44.92;31.52;;;11.70;99.90;;;;;;5009146;28;20586;-71
2022/10/08 00:04:29;;;;;;;38.28;30.90;;;11.60;99.90;;;;;;5008633;28;20038;-72
2022/10/08 00:07:15;;;;;;;46.15;31.55;;;11.70;99.90;;;;;;4931293;29;20510;-69
2022/10/08 00:09:41;;;;;;;40.53;29.50;;;11.60;99.90;;;;;;4931324;29;20039;-71
2022/10/08 00:13:06;;;;;;;39.63;29.98;;;11.60;99.90;;;;;;4932033;29;20520;-71
2022/10/08 00:22:34;;;;;;;;;;;;;;;;;;;;;
2022/10/08 00:25:31;;;;;;;50.70;33.20;;;11.40;99.90;;;;;;4877615;29;20128;-71
2022/10/08 00:31:39;;;;;;;74.28;32.88;;;11.30;99.90;;;;;;4892154;29;20052;-72
2022/10/08 00:38:38;;;;;;;99.18;34.30;;;11.10;99.90;;;;;;4875116;29;20193;-71
2022/10/08 00:45:37;;;;;;;37.08;29.27;;;11.00;99.90;;;;;;4874942;29;20072;-72
2022/10/08 00:55:34;;;;;;;37.45;29.73;;;11.00;99.90;;;;;;4877999;29;20123;-71
2022/10/08 00:58:21;;;;;;;;;;;;;;;;;;;;;
2022/10/08 01:04:28;;;;;;;41.22;29.95;;;10.90;99.90;;;;;;4902378;29;20035;-71
2022/10/08 01:07:37;;;;;;;41.90;30.40;;;11.00;99.90;;;;;;4907465;29;20446;-72
2022/10/08 01:10:39;;;;;;;39.83;29.90;;;11.00;99.90;;;;;;4912140;29;20041;-71
2022/10/08 01:13:37;;;;;;;36.53;28.30;;;11.00;99.90;;;;;;4931318;29;20086;-71
2022/10/08 01:17:18;;;;;;;38.83;27.48;;;11.10;99.90;;;;;;4931983;29;20142;-72
2022/10/08 01:20:47;;;;;;;39.78;28.60;;;11.10;99.90;;;;;;4934724;29;20040;-71
2022/10/08 01:24:08;;;;;;;39.40;30.13;;;11.10;99.90;;;;;;4949321;28;20587;-70
2022/10/08 01:27:01;;;;;;;37.83;28.65;;;11.10;99.90;;;;;;4965412;28;20129;-70
2022/10/08 01:30:11;;;;;;;40.90;28.88;;;11.00;99.90;;;;;;4950627;28;20569;-72
2022/10/08 01:33:25;;;;;;;33.17;27.02;;;11.00;99.90;;;;;;4889614;29;20140;-71
2022/10/08 01:35:58;;;;;;;38.72;27.98;;;11.00;99.90;;;;;;4879041;29;20045;-71
2022/10/08 01:38:41;;;;;;;34.63;26.48;;;11.00;99.90;;;;;;4893765;29;20067;-71
2022/10/08 01:41:23;;;;;;;34.50;26.30;;;10.90;99.90;;;;;;4863517;29;20128;-71
2022/10/08 01:44:12;;;;;;;36.45;27.40;;;10.90;99.90;;;;;;4860271;29;20485;-71
2022/10/08 01:46:45;;;;;;;36.38;25.50;;;10.90;99.90;;;;;;4860158;29;20032;-70
2022/10/08 01:49:19;;;;;;;34.42;25.23;;;10.80;99.90;;;;;;4875262;29;20491;-71
2022/10/08 01:52:07;;;;;;;38.58;26.45;;;10.80;99.90;;;;;;4878768;29;20065;-71
2022/10/08 01:54:36;;;;;;;38.17;26.58;;;10.80;99.90;;;;;;4879851;29;20123;-72
2022/10/08 01:57:34;;;;;;;40.20;28.20;;;10.80;99.90;;;;;;4897642;29;20044;-71
2022/10/08 02:00:11;;;;;;;34.28;27.40;;;10.70;99.90;;;;;;4866458;29;20096;-70
2022/10/08 02:03:24;;;;;;;;;;;;;;;;;;;;;
2022/10/08 02:05:58;;;;;;;39.72;28.95;;;10.60;99.90;;;;;;4890138;29;20044;-71
2022/10/08 02:08:33;;;;;;;;;;;10.70;99.90;;;;;;4961318;28;20125;-72
2022/10/08 02:10:59;;;;;;;34.45;29.08;;;10.60;99.90;;;;;;4993027;28;20032;-71
2022/10/08 02:13:29;;;;;;;39.17;28.38;;;10.50;99.90;;;;;;5012723;28;20126;-71
2022/10/08 02:16:06;;;;;;;38.70;28.48;;;10.50;99.90;;;;;;4961658;28;20050;-71
2022/10/08 02:18:57;;;;;;;37.65;28.10;;;10.40;99.90;;;;;;4992405;28;20510;-71
2022/10/08 02:21:27;;;;;;;38.22;28.55;;;10.50;99.90;;;;;;4973004;28;20034;-70
2022/10/08 02:24:09;;;;;;;38.63;29.35;;;10.50;99.90;;;;;;5023920;28;20065;-71
2022/10/08 02:26:45;;;;;;;39.55;28.92;;;10.50;99.90;;;;;;5034558;28;20044;-68
2022/10/08 02:29:25;;;;;;;39.50;28.27;;;10.50;99.90;;;;;;5032863;28;20021;-71
2022/10/08 02:32:04;;;;;;;40.70;28.92;;;10.60;99.90;;;;;;5034499;28;20048;-72
2022/10/08 02:34:44;;;;;;;41.28;29.25;;;10.60;99.90;;;;;;5034197;28;20032;-71
2022/10/08 02:37:20;;;;;;;42.55;28.15;;;10.60;99.90;;;;;;5023830;28;20037;-69
2022/10/08 02:39:52;;;;;;;36.75;27.67;;;10.60;99.90;;;;;;5033911;28;20112;-70
2022/10/08 02:42:24;;;;;;;38.13;26.95;;;10.70;99.90;;;;;;5032109;28;20036;-71
2022/10/08 02:45:00;;;;;;;37.72;26.70;;;10.60;99.90;;;;;;5033249;28;20057;-71
2022/10/08 02:47:31;;;;;;;39.00;29.75;;;10.60;99.90;;;;;;5032750;28;20476;-71
2022/10/08 02:50:02;;;;;;;40.45;28.83;;;10.70;99.90;;;;;;5015802;28;20044;-72
2022/10/08 02:52:37;;;;;;;36.33;28.15;;;10.70;99.90;;;;;;5032642;28;20033;-71
2022/10/08 02:55:13;;;;;;;36.10;26.88;;;10.80;99.90;;;;;;5024521;28;20071;-72
2022/10/08 02:57:48;;;;;;;39.08;27.52;;;10.70;99.90;;;;;;5030031;28;20026;-71
2022/10/08 03:00:15;;;;;;;35.30;26.50;;;10.80;99.90;;;;;;5030514;28;20493;-72
2022/10/08 03:02:54;;;;;;;30.13;23.50;;;10.80;99.90;;;;;;5031763;28;20399;-71
2022/10/08 03:05:21;;;;;;;33.75;22.73;;;10.80;99.90;;;;;;5033180;28;20102;-71
2022/10/08 03:07:53;;;;;;;35.10;26.83;;;10.80;99.90;;;;;;5032167;28;20136;-71
2022/10/08 03:10:23;;;;;;;32.72;25.58;;;10.70;99.90;;;;;;5030261;28;20125;-71
2022/10/08 03:12:49;;;;;;;32.13;23.92;;;10.70;99.90;;;;;;5012506;28;20034;-71
2022/10/08 03:15:15;;;;;;;35.22;24.67;;;10.70;99.90;;;;;;5031758;28;20100;-71
2022/10/08 03:17:45;;;;;;;28.75;22.95;;;10.70;99.90;;;;;;5011998;28;20480;-72
2022/10/08 03:20:12;;;;;;;31.58;24.63;;;10.60;99.90;;;;;;5027594;28;20032;-71
2022/10/08 03:22:38;;;;;;;32.35;23.52;;;10.60;99.90;;;;;;5033152;28;20029;-71
2022/10/08 03:25:07;;;;;;;46.15;29.73;;;10.60;99.90;;;;;;5024838;28;20117;-72
2022/10/08 03:27:34;;;;;;;32.40;26.00;;;10.60;99.90;;;;;;5031827;28;20471;-69
2022/10/08 03:30:00;;;;;;;35.63;25.13;;;10.60;99.90;;;;;;5031175;28;20045;-71
2022/10/08 03:32:26;;;;;;;34.25;26.50;;;10.50;99.90;;;;;;5031146;28;20035;-71
2022/10/08 03:34:52;;;;;;;33.17;25.23;;;10.50;99.90;;;;;;5032345;28;20030;-71
2022/10/08 03:37:19;;;;;;;30.92;22.27;;;10.50;99.90;;;;;;5028169;28;20025;-71
2022/10/08 03:39:45;;;;;;;39.40;28.55;;;10.50;99.90;;;;;;5030348;28;20128;-71
2022/10/08 03:42:11;;;;;;;36.95;27.10;;;10.50;99.90;;;;;;5021229;28;20372;-71
2022/10/08 03:44:38;;;;;;;32.42;24.52;;;10.40;99.90;;;;;;5023728;28;20499;-71
2022/10/08 03:47:04;;;;;;;40.65;25.42;;;10.50;99.90;;;;;;5031461;28;20361;-71
2022/10/08 03:49:30;;;;;;;31.80;23.70;;;10.40;99.90;;;;;;5028101;28;20100;-71
2022/10/08 03:51:56;;;;;;;28.02;22.05;;;10.40;99.90;;;;;;5015591;28;20146;-71
2022/10/08 03:54:22;;;;;;;29.60;22.05;;;10.40;99.90;;;;;;5027040;28;20484;-71
2022/10/08 03:56:48;;;;;;;31.67;21.73;;;10.30;99.90;;;;;;5026971;28;20029;-70
2022/10/08 03:59:14;;;;;;;32.08;22.83;;;10.30;99.90;;;;;;5026519;28;20100;-71
2022/10/08 04:01:40;;;;;;;28.20;21.02;;;10.20;99.90;;;;;;5036412;28;20025;-71
2022/10/08 04:04:06;;;;;;;31.35;21.90;;;10.10;99.90;;;;;;5034960;28;20052;-70
2022/10/08 04:06:32;;;;;;;31.77;22.48;;;10.10;99.90;;;;;;5028970;28;20542;-71
2022/10/08 04:09:01;;;;;;;32.58;23.45;;;10.00;99.90;;;;;;5023018;28;20109;-71
2022/10/08 04:11:28;;;;;;;36.33;23.83;;;9.90;99.90;;;;;;5030353;28;20062;-71
2022/10/08 04:13:54;;;;;;;31.98;23.50;;;9.80;99.90;;;;;;5054150;28;20027;-71
2022/10/08 04:16:20;;;;;;;33.30;22.58;;;9.80;99.90;;;;;;5085749;28;20036;-71
2022/10/08 04:18:47;;;;;;;29.92;21.27;;;9.80;99.90;;;;;;5093304;28;20453;-70
2022/10/08 04:21:15;;;;;;;34.33;22.20;;;9.70;99.90;;;;;;5090786;28;20123;-71
2022/10/08 04:23:42;;;;;;;32.72;24.27;;;9.70;99.90;;;;;;5056892;28;20055;-71
2022/10/08 04:26:10;;;;;;;30.55;22.85;;;9.60;99.90;;;;;;5074968;28;20081;-70
2022/10/08 04:28:38;;;;;;;29.15;22.15;;;9.50;99.90;;;;;;5073536;28;20032;-71
2022/10/08 04:31:06;;;;;;;33.22;20.95;;;9.60;99.90;;;;;;5073120;28;20044;-68
2022/10/08 04:33:33;;;;;;;38.75;20.38;;;9.60;99.90;;;;;;5080734;28;20111;-68
2022/10/08 04:36:00;;;;;;;30.38;22.23;;;9.50;99.90;;;;;;5090483;28;20024;-70
2022/10/08 04:38:26;;;;;;;32.90;23.58;;;9.50;99.90;;;;;;5090295;28;20028;-71
2022/10/08 04:41:06;;;;;;;35.70;23.95;;;9.40;99.90;;;;;;5064567;28;20059;-70
2022/10/08 04:43:33;;;;;;;46.72;26.35;;;9.50;99.90;;;;;;5065208;28;20068;-70
2022/10/08 04:45:59;;;;;;;47.90;27.85;;;9.30;99.90;;;;;;5041328;28;20051;-71
2022/10/08 04:48:25;;;;;;;51.17;24.38;;;9.10;99.90;;;;;;5070657;28;20121;-71
2022/10/08 04:50:55;;;;;;;47.17;25.52;;;9.10;99.90;;;;;;5086664;28;20036;-71
2022/10/08 04:53:21;;;;;;;38.90;25.60;;;9.10;99.90;;;;;;5080995;28;21808;-71
2022/10/08 04:55:47;;;;;;;56.72;28.15;;;9.10;99.90;;;;;;5050405;28;20043;-70
2022/10/08 04:58:13;;;;;;;33.95;24.77;;;9.20;99.90;;;;;;5064795;28;20054;-70
2022/10/08 05:00:39;;;;;;;60.80;26.08;;;9.20;99.90;;;;;;5088421;28;20072;-71
2022/10/08 05:03:05;;;;;;;34.25;26.38;;;9.30;99.90;;;;;;5086390;28;20027;-69
2022/10/08 05:05:31;;;;;;;37.42;25.38;;;9.30;99.90;;;;;;5086894;28;20023;-71
2022/10/08 05:07:57;;;;;;;42.50;22.77;;;9.30;99.90;;;;;;5090181;28;20504;-70
2022/10/08 05:10:23;;;;;;;39.80;23.23;;;9.30;99.90;;;;;;5071228;28;20039;-69
2022/10/08 05:12:49;;;;;;;30.70;23.52;;;9.30;99.90;;;;;;5088451;28;20020;-69
2022/10/08 05:15:15;;;;;;;34.53;23.25;;;9.40;99.90;;;;;;5087943;28;20036;-68
2022/10/08 05:17:41;;;;;;;43.42;24.02;;;9.50;99.90;;;;;;5087151;28;20492;-69
2022/10/08 05:20:08;;;;;;;32.65;23.42;;;9.40;99.90;;;;;;5089894;28;20021;-69
2022/10/08 05:22:34;;;;;;;36.08;25.80;;;9.40;99.90;;;;;;5091319;28;20039;-69
2022/10/08 05:25:00;;;;;;;35.22;22.15;;;9.30;99.90;;;;;;5091595;28;20333;-69
2022/10/08 05:27:26;;;;;;;27.48;23.08;;;9.30;99.90;;;;;;5086147;28;20033;-69
2022/10/08 05:29:52;;;;;;;29.38;22.83;;;9.20;99.90;;;;;;5065119;28;20029;-71
2022/10/08 05:32:18;;;;;;;29.52;22.35;;;9.10;99.90;;;;;;5058201;28;20025;-70
2022/10/08 05:34:45;;;;;;;37.35;24.38;;;9.10;99.90;;;;;;5069307;28;20024;-70
2022/10/08 05:37:11;;;;;;;49.03;25.90;;;9.00;99.90;;;;;;5059827;28;20525;-70
2022/10/08 05:39:36;;;;;;;32.83;26.38;;;9.10;99.90;;;;;;5063192;28;20111;-70
2022/10/08 05:42:02;;;;;;;32.60;24.67;;;9.10;99.90;;;;;;5071098;28;20382;-70
2022/10/08 05:44:29;;;;;;;38.58;26.42;;;9.20;99.90;;;;;;5068757;28;20064;-70
2022/10/08 05:46:55;;;;;;;37.35;27.25;;;9.30;99.90;;;;;;5070819;28;20020;-69
2022/10/08 05:49:22;;;;;;;33.17;26.92;;;9.40;99.90;;;;;;5035458;28;20024;-70
2022/10/08 05:51:49;;;;;;;41.33;28.83;;;9.60;99.90;;;;;;5071061;28;20105;-70
2022/10/08 05:54:16;;;;;;;33.00;27.33;;;9.80;99.90;;;;;;5070281;28;20081;-70
2022/10/08 05:56:43;;;;;;;36.08;27.17;;;9.90;99.90;;;;;;5057055;28;20098;-70
2022/10/08 05:59:19;;;;;;;30.85;24.50;;;10.10;99.90;;;;;;5055112;28;20152;-70
2022/10/08 06:01:45;;;;;;;30.92;22.58;;;10.30;99.90;;;;;;5058154;28;20119;-70
2022/10/08 06:04:12;;;;;;;28.77;21.63;;;10.10;99.90;;;;;;5070054;28;20032;-70
2022/10/08 06:06:40;;;;;;;27.02;19.42;;;10.20;99.90;;;;;;5069859;28;20065;-69
2022/10/08 06:09:07;;;;;;;27.08;20.42;;;10.20;99.90;;;;;;5039522;28;20025;-71
2022/10/08 06:11:35;;;;;;;24.45;18.40;;;10.00;99.90;;;;;;5064823;28;20029;-68
2022/10/08 06:14:02;;;;;;;24.38;19.75;;;10.10;99.90;;;;;;5066463;28;20048;-71
2022/10/08 06:16:29;;;;;;;24.40;20.38;;;10.00;99.90;;;;;;5070338;28;20040;-70
2022/10/08 06:18:55;;;;;;;24.90;19.33;;;10.00;99.90;;;;;;5067221;28;20151;-72
2022/10/08 06:21:24;;;;;;;28.02;20.65;;;10.00;99.90;;;;;;5065572;28;20036;-71
2022/10/08 06:23:52;;;;;;;30.20;23.35;;;10.20;99.90;;;;;;5051295;28;20382;-71
2022/10/08 06:26:21;;;;;;;30.65;22.73;;;10.40;99.90;;;;;;5065146;28;20553;-70
2022/10/08 06:28:48;;;;;;;31.38;23.27;;;10.50;99.90;;;;;;5076921;28;20484;-70
2022/10/08 06:31:15;;;;;;;58.15;29.38;;;10.70;99.90;;;;;;5058479;28;20047;-72
2022/10/08 06:33:41;;;;;;;35.85;26.42;;;11.00;99.90;;;;;;5074042;28;20032;-71
2022/10/08 06:36:22;;;;;;;34.15;25.15;;;11.00;99.90;;;;;;5082361;28;20026;-71
2022/10/08 06:38:53;;;;;;;32.65;25.25;;;11.30;99.90;;;;;;5045469;28;20028;-70
2022/10/08 06:41:20;;;;;;;30.48;24.02;;;11.50;99.90;;;;;;5061713;28;20378;-70
2022/10/08 06:43:46;;;;;;;30.70;24.33;;;11.70;99.90;;;;;;5075408;28;20103;-71
2022/10/08 06:46:16;;;;;;;28.98;23.50;;;11.70;99.90;;;;;;5072736;28;20483;-70
2022/10/08 06:48:42;;;;;;;33.13;25.90;;;11.90;99.90;;;;;;5064710;28;20428;-68
2022/10/08 06:51:16;;;;;;;35.60;26.38;;;12.00;99.90;;;;;;5078383;28;20033;-71
2022/10/08 06:53:43;;;;;;;32.53;25.08;;;12.00;99.90;;;;;;5048040;28;20187;-71
2022/10/08 06:56:13;;;;;;;36.83;27.98;;;12.30;99.90;;;;;;5071803;28;20484;-71
2022/10/08 06:58:42;;;;;;;34.03;27.13;;;12.30;99.90;;;;;;5083166;28;20055;-73
2022/10/08 07:01:11;;;;;;;32.53;25.73;;;12.40;99.90;;;;;;5041701;28;20028;-71
2022/10/08 07:03:38;;;;;;;28.70;24.45;;;12.50;99.90;;;;;;5064311;28;20099;-71
2022/10/08 07:06:06;;;;;;;32.53;25.95;;;12.50;99.90;;;;;;5068862;28;20021;-72
2022/10/08 07:08:34;;;;;;;27.20;22.85;;;12.60;99.90;;;;;;5045372;28;20070;-72
2022/10/08 07:11:05;;;;;;;33.30;25.98;;;12.80;99.90;;;;;;5064209;28;20056;-72
2022/10/08 07:13:32;;;;;;;31.83;25.90;;;12.90;99.90;;;;;;5050873;28;20082;-72
2022/10/08 07:16:07;;;;;;;30.02;23.98;;;12.90;99.90;;;;;;5067102;28;20041;-67
2022/10/08 07:18:35;;;;;;;28.75;23.90;;;12.80;99.90;;;;;;5036620;28;20024;-73
2022/10/08 07:21:01;;;;;;;29.45;23.92;;;13.00;99.90;;;;;;5067290;28;20020;-69
2022/10/08 07:23:27;;;;;;;30.50;24.58;;;13.20;99.90;;;;;;5071027;28;20045;-69
2022/10/08 07:26:00;;;;;;;30.85;23.13;;;13.30;99.90;;;;;;5073278;28;20077;-71
2022/10/08 07:28:37;;;;;;;31.42;24.08;;;13.40;99.90;;;;;;5051084;28;20572;-73
2022/10/08 07:31:26;;;;;;;29.60;22.88;;;13.50;99.90;;;;;;5072281;28;20136;-73
2022/10/08 07:33:53;;;;;;;30.70;23.70;;;13.60;99.90;;;;;;5039759;28;20484;-72
2022/10/08 07:36:21;;;;;;;29.88;22.13;;;13.50;99.90;;;;;;5049345;28;20029;-73
2022/10/08 07:38:51;;;;;;;37.70;23.45;;;13.50;99.90;;;;;;5035708;28;20035;-73
2022/10/08 07:41:17;;;;;;;29.85;22.63;;;13.40;99.90;;;;;;5035654;28;20036;-73
2022/10/08 07:43:43;;;;;;;30.13;23.30;;;13.60;99.90;;;;;;5024936;28;20102;-75
2022/10/08 07:46:14;;;;;;;29.50;23.50;;;13.80;99.90;;;;;;5068795;28;20378;-75
2022/10/08 07:48:40;;;;;;;29.05;24.25;;;13.90;99.90;;;;;;5048731;28;20032;-74
2022/10/08 07:51:14;;;;;;;32.97;25.40;;;14.10;99.90;;;;;;5070660;28;20039;-74
2022/10/08 07:53:53;;;;;;;32.70;24.40;;;14.30;99.90;;;;;;5070569;28;20115;-74
2022/10/08 07:56:38;;;;;;;32.72;24.70;;;14.50;99.90;;;;;;5070471;28;20532;-72
2022/10/08 08:00:11;;;;;;;32.28;24.20;;;14.70;99.90;;;;;;5055603;28;20585;-72
2022/10/08 08:03:03;;;;;;;30.80;24.60;;;14.90;99.90;;;;;;4980700;28;20035;-70
2022/10/08 08:06:34;;;;;;;32.72;24.80;;;14.90;99.90;;;;;;4961312;28;20046;-71
2022/10/08 08:09:00;;;;;;;29.33;24.05;;;15.10;99.90;;;;;;4914296;29;20087;-72
2022/10/08 08:11:54;;;;;;;31.40;25.15;;;15.30;99.90;;;;;;4913778;29;20047;-73
2022/10/08 08:14:40;;;;;;;31.45;25.48;;;15.40;99.90;;;;;;4898277;29;20450;-73
2022/10/08 08:21:01;;;;;;;38.08;24.25;;;15.80;99.90;;;;;;4914573;29;20115;-73
2022/10/08 08:23:29;;;;;;;32.83;23.75;;;16.00;99.90;;;;;;4912895;29;20478;-69
2022/10/08 08:26:00;;;;;;;36.67;25.35;;;16.10;99.90;;;;;;4909871;29;20067;-70
2022/10/08 08:28:27;;;;;;;35.42;26.35;;;16.50;99.90;;;;;;4910762;29;20032;-67
2022/10/08 08:30:54;;;;;;;38.20;27.33;;;16.60;99.90;;;;;;4901153;29;20044;-71
2022/10/08 08:33:20;;;;;;;34.30;27.95;;;16.60;99.90;;;;;;4912790;29;20048;-73
2022/10/08 08:35:54;;;;;;;37.10;26.92;;;16.60;99.90;;;;;;4912772;29;20039;-72
2022/10/08 08:38:20;;;;;;;32.72;25.52;;;16.70;99.90;;;;;;4912867;29;20092;-72
2022/10/08 08:40:46;;;;;;;28.85;25.17;;;16.90;99.90;;;;;;4912507;29;20555;-73
2022/10/08 08:43:15;;;;;;;31.73;25.05;;;17.00;99.90;;;;;;4916140;29;20048;-72
2022/10/08 08:45:42;;;;;;;30.73;24.40;;;17.10;99.90;;;;;;4983599;28;20173;-73
2022/10/08 08:48:25;;;;;;;32.58;23.90;;;17.20;99.90;;;;;;4989934;28;20063;-72
2022/10/08 08:50:53;;;;;;;;;;;17.40;99.90;;;;;;4990008;28;20129;-71
2022/10/08 08:53:19;;;;;;;29.08;21.77;;;17.50;99.90;;;;;;4989868;28;19906;-73
2022/10/08 08:55:49;;;;;;;27.95;20.27;;;17.60;99.90;;;;;;4990088;28;20038;-72
2022/10/08 08:58:26;;;;;;;30.95;22.02;;;17.70;99.90;;;;;;5049340;28;20059;-73
2022/10/08 09:01:24;;;;;;;29.80;19.65;;;17.80;99.90;;;;;;5070713;28;20032;-73
2022/10/08 09:03:58;;;;;;;24.50;19.30;;;17.80;99.90;;;;;;5048139;28;20040;-73
2022/10/08 09:06:52;;;;;;;27.85;19.42;;;17.70;99.90;;;;;;5071096;28;20024;-71
2022/10/08 09:09:38;;;;;;;25.70;18.85;;;17.60;99.90;;;;;;5070895;28;20108;-73
2022/10/08 09:12:22;;;;;;;21.83;16.08;;;17.70;99.90;;;;;;5071249;28;20072;-72
2022/10/08 09:14:53;;;;;;;21.33;16.83;;;17.70;99.90;;;;;;5071372;28;20597;-72
2022/10/08 09:17:44;;;;;;;28.00;16.83;;;17.80;99.90;;;;;;5071299;28;20029;-72
2022/10/08 09:20:18;;;;;;;21.98;14.57;;;17.80;99.90;;;;;;5058140;28;20013;-72
2022/10/08 09:22:45;;;;;;;22.20;15.07;;;17.70;99.90;;;;;;5070628;28;20024;-74
2022/10/08 09:25:30;;;;;;;23.73;17.00;;;18.00;99.90;;;;;;5072154;28;20458;-73
2022/10/08 09:28:04;;;;;;;20.30;13.98;;;17.80;99.90;;;;;;5056466;28;20051;-74
2022/10/08 09:30:37;;;;;;;20.05;13.48;;;18.10;99.90;;;;;;5070734;28;20044;-72
2022/10/08 09:33:30;;;;;;;22.40;13.70;;;18.10;99.90;;;;;;5057223;28;20016;-74
2022/10/08 09:35:57;;;;;;;21.65;13.07;;;18.10;99.90;;;;;;5070824;28;20021;-73
2022/10/08 09:38:31;;;;;;;19.35;14.25;;;18.10;99.90;;;;;;5081912;28;20039;-73
2022/10/08 09:41:21;;;;;;;21.52;13.07;;;18.20;99.90;;;;;;5072339;28;20017;-73
2022/10/08 09:44:07;;;;;;;19.85;13.02;;;18.20;99.90;;;;;;4969895;28;20522;-73
2022/10/08 09:46:33;;;;;;;18.95;13.60;;;18.20;99.90;;;;;;4969334;28;20027;-73
2022/10/08 09:49:26;;;;;;;18.83;12.65;;;18.50;99.90;;;;;;4968821;28;20038;-73
2022/10/08 09:51:54;;;;;;;19.60;12.95;;;18.70;99.90;;;;;;4963639;28;20556;-74
2022/10/08 09:54:28;;;;;;;22.58;13.88;;;18.50;99.90;;;;;;4973628;28;20035;-73
2022/10/08 09:56:58;;;;;;;18.10;12.40;;;18.60;99.90;;;;;;4957276;28;20202;-74
2022/10/08 09:59:27;;;;;;;19.42;13.02;;;18.60;99.90;;;;;;4973480;28;20464;-73
2022/10/08 10:01:54;;;;;;;20.52;13.70;;;18.60;99.90;;;;;;4973215;28;20035;-75
2022/10/08 10:04:31;;;;;;;20.40;14.85;;;18.40;99.90;;;;;;4973286;28;20035;-72
2022/10/08 10:09:48;;;;;;;24.70;15.40;;;18.50;99.90;;;;;;4958781;26;20050;-71
2022/10/08 10:12:36;;;;;;;18.42;13.40;;;18.70;99.90;;;;;;4995000;28;20120;-72
2022/10/08 10:15:19;;;;;;;21.50;13.65;;;18.70;99.90;;;;;;4994342;28;20030;-70
2022/10/08 10:17:51;;;;;;;20.55;13.30;;;18.80;99.90;;;;;;4991776;28;20034;-71
2022/10/08 10:20:40;;;;;;;19.73;12.73;;;18.80;99.90;;;;;;4995069;28;20366;-72
2022/10/08 10:23:28;;;;;;;19.63;12.73;;;19.00;99.90;;;;;;4977250;28;20499;-72
2022/10/08 10:25:59;;;;;;;20.10;12.65;;;19.10;99.90;;;;;;4994952;28;20065;-72
2022/10/08 10:28:38;;;;;;;16.58;9.35;;;19.30;99.90;;;;;;4994592;28;20038;-70
2022/10/08 10:31:30;;;;;;;15.10;10.30;;;19.50;99.90;;;;;;4994579;28;20042;-70
2022/10/08 10:34:14;;;;;;;17.27;9.70;;;19.50;99.90;;;;;;4993113;28;20026;-68
2022/10/08 10:36:49;;;;;;;18.75;12.95;;;19.70;99.90;;;;;;4992902;28;20027;-71
2022/10/08 10:39:39;;;;;;;22.60;12.82;;;19.80;99.90;;;;;;4993719;28;20500;-72
2022/10/08 10:42:31;;;;;;;18.83;10.93;;;19.60;99.90;;;;;;4992466;28;20046;-71
2022/10/08 10:45:20;;;;;;;24.23;11.90;;;19.70;99.90;;;;;;4994536;28;20038;-69
2022/10/08 10:47:49;;;;;;;19.95;12.05;;;19.80;99.90;;;;;;4994407;28;20086;-71
2022/10/08 10:50:19;;;;;;;28.08;12.20;;;19.80;99.90;;;;;;4993931;28;20076;-70
2022/10/08 10:53:01;;;;;;;18.65;12.45;;;19.80;99.90;;;;;;4994248;28;20057;-70
2022/10/08 10:55:48;;;;;;;18.77;11.73;;;19.80;99.90;;;;;;4994343;28;20058;-68
2022/10/08 10:58:59;;;;;;;17.15;11.38;;;19.90;99.90;;;;;;4985175;23;20047;-70
2022/10/08 11:01:30;;;;;;;16.20;10.93;;;19.90;99.90;;;;;;5013239;28;20113;-67
2022/10/08 11:03:56;;;;;;;20.75;11.90;;;20.10;99.90;;;;;;4995556;28;20030;-69
2022/10/08 11:06:33;;;;;;;15.43;10.65;;;20.20;99.90;;;;;;4995594;28;20460;-70
2022/10/08 11:09:16;;;;;;;18.25;10.55;;;20.30;99.90;;;;;;5012655;28;20554;-70
2022/10/08 11:12:32;;;;;;;16.60;10.52;;;20.50;99.90;;;;;;5013251;28;20061;-67
2022/10/08 11:15:07;;;;;;;17.00;11.13;;;20.70;99.90;;;;;;4933680;29;20036;-70
2022/10/08 11:17:44;;;;;;;17.95;10.48;;;20.80;99.90;;;;;;4934188;29;20402;-69
2022/10/08 11:20:18;;;;;;;15.90;10.70;;;20.80;99.90;;;;;;4914669;29;20161;-70
2022/10/08 11:23:01;;;;;;;14.13;10.00;;;20.80;99.90;;;;;;4914551;29;20035;-67
2022/10/08 11:25:45;;;;;;;14.57;9.95;;;20.70;99.90;;;;;;4914788;29;20051;-70
2022/10/08 11:28:17;;;;;;;18.88;9.77;;;20.70;99.90;;;;;;4914166;29;20585;-68
2022/10/08 11:30:56;;;;;;;22.38;9.93;;;20.70;99.90;;;;;;4914318;29;20418;-70
2022/10/08 11:33:23;;;;;;;19.45;10.88;;;20.80;99.90;;;;;;4914773;29;20068;-70
2022/10/08 11:36:02;;;;;;;20.02;11.18;;;20.80;99.90;;;;;;4914471;29;20032;-69
2022/10/08 11:38:37;;;;;;;17.10;10.07;;;20.70;99.90;;;;;;4920711;29;20036;-69
2022/10/08 11:41:52;;;;;;;16.60;10.52;;;20.80;99.90;;;;;;4914013;29;20032;-69
2022/10/08 11:44:19;;;;;;;15.63;10.88;;;20.60;99.90;;;;;;4876737;29;20116;-69
2022/10/08 11:46:45;;;;;;;16.88;10.27;;;20.60;99.90;;;;;;4876745;29;20085;-68
2022/10/08 11:49:14;;;;;;;17.02;10.23;;;20.60;99.90;;;;;;4881238;29;20037;-69
2022/10/08 11:51:49;;;;;;;21.42;11.85;;;20.60;99.90;;;;;;4941553;29;20188;-70
2022/10/08 11:54:17;;;;;;;20.92;10.52;;;20.60;99.90;;;;;;4951374;29;20027;-71
2022/10/08 11:56:44;;;;;;;15.50;10.05;;;20.60;99.90;;;;;;4969479;28;20543;-69
2022/10/08 11:59:31;;;;;;;14.27;8.80;;;20.70;99.90;;;;;;4970735;28;20078;-71
2022/10/08 12:02:16;;;;;;;15.63;9.95;;;20.70;99.90;;;;;;5011421;23;20044;-70
2022/10/08 12:04:42;;;;;;;15.50;9.52;;;20.80;99.90;;;;;;5072739;28;20036;-69
2022/10/08 12:07:14;;;;;;;15.77;9.40;;;20.80;99.90;;;;;;5053040;28;20367;-69
2022/10/08 12:10:04;;;;;;;18.73;9.32;;;20.80;99.90;;;;;;5071635;28;20074;-70
2022/10/08 12:12:49;;;;;;;14.00;8.55;;;20.90;99.90;;;;;;5071823;28;20107;-70
2022/10/08 12:15:23;;;;;;;17.50;8.75;;;20.80;99.90;;;;;;5071198;28;20041;-70
2022/10/08 12:17:53;;;;;;;21.52;10.20;;;20.90;99.90;;;;;;5072203;28;20025;-67
2022/10/08 12:20:29;;;;;;;16.70;10.02;;;20.90;99.90;;;;;;5072224;28;20029;-69
2022/10/08 12:23:03;;;;;;;13.80;9.55;;;20.90;99.90;;;;;;5070901;28;20042;-69
2022/10/08 12:25:37;;;;;;;15.82;9.55;;;21.00;99.90;;;;;;5067167;28;20410;-69
2022/10/08 12:28:18;;;;;;;18.73;9.57;;;21.00;99.90;;;;;;5044451;28;20032;-69
2022/10/08 12:30:49;;;;;;;15.30;9.32;;;21.00;99.90;;;;;;5071563;28;20163;-68
2022/10/08 12:33:16;;;;;;;13.25;8.77;;;21.00;99.90;;;;;;5071095;28;20040;-69
2022/10/08 12:36:07;;;;;;;13.65;8.82;;;21.00;99.90;;;;;;5071516;28;20035;-68
2022/10/08 12:38:50;;;;;;;16.33;8.45;;;21.00;99.90;;;;;;5071456;28;20016;-67
2022/10/08 12:41:29;;;;;;;14.13;8.65;;;21.00;99.90;;;;;;5071820;28;20351;-66
2022/10/08 12:44:14;;;;;;;17.55;7.30;;;21.10;99.90;;;;;;5071755;28;20044;-67
2022/10/08 12:47:08;;;;;;;22.35;7.80;;;21.20;99.90;;;;;;5054515;28;20074;-68
2022/10/08 12:49:51;;;;;;;9.88;6.72;;;21.20;99.90;;;;;;5051151;28;20048;-68
2022/10/08 12:52:18;;;;;;;8.02;5.70;;;21.10;99.90;;;;;;5070689;28;20040;-69
2022/10/08 12:54:51;;;;;;;11.38;6.72;;;21.10;99.90;;;;;;5070869;28;20023;-69
2022/10/08 12:57:22;;;;;;;10.23;6.30;;;21.00;99.90;;;;;;5070755;28;20036;-67
2022/10/08 12:59:49;;;;;;;7.85;5.32;;;21.10;99.90;;;;;;5071634;28;20699;-68
2022/10/08 13:02:40;;;;;;;7.70;5.15;;;21.10;99.90;;;;;;5070723;28;20128;-69
2022/10/08 13:05:24;;;;;;;9.55;6.28;;;21.30;99.90;;;;;;5047982;28;20490;-68
2022/10/08 13:07:50;;;;;;;8.88;5.72;;;21.30;99.90;;;;;;5067021;28;20039;-68
2022/10/08 13:10:20;;;;;;;11.52;6.47;;;21.30;99.90;;;;;;5067459;28;20028;-68
2022/10/08 13:13:25;;;;;;;15.88;6.55;;;21.40;99.90;;;;;;5050366;28;20076;-68
2022/10/08 13:15:59;;;;;;;14.40;6.43;;;21.40;99.90;;;;;;5070753;28;20467;-69
2022/10/08 13:18:25;;;;;;;8.23;6.13;;;21.40;99.90;;;;;;5070251;28;20040;-68
2022/10/08 13:23:39;;;;;;;14.40;6.88;;;21.40;99.90;;;;;;4833003;26;20050;-67
2022/10/08 13:26:43;;;;;;;10.70;6.05;;;21.40;99.90;;;;;;5024640;28;20357;-68
2022/10/08 13:29:21;;;;;;;11.15;6.35;;;21.40;99.90;;;;;;5021375;28;20057;-66
2022/10/08 13:32:11;;;;;;;12.63;7.90;;;21.40;99.90;;;;;;5035198;28;20073;-64
2022/10/08 13:34:36;;;;;;;15.25;7.68;;;21.40;99.90;;;;;;5015752;28;20040;-68
2022/10/08 13:37:06;;;;;;;14.85;6.88;;;21.40;99.90;;;;;;5017519;28;20017;-67
2022/10/08 13:39:40;;;;;;;11.02;7.07;;;21.40;99.90;;;;;;5035270;28;20034;-68
2022/10/08 13:42:13;;;;;;;13.43;7.05;;;21.40;99.90;;;;;;5017479;28;20025;-65
2022/10/08 13:44:40;;;;;;;13.73;8.05;;;21.40;99.90;;;;;;5032857;28;20078;-64
2022/10/08 13:47:16;;;;;;;14.32;8.48;;;21.40;99.90;;;;;;5034320;28;20025;-64
2022/10/08 13:49:43;;;;;;;12.95;7.57;;;21.40;99.90;;;;;;5034564;28;20032;-68
2022/10/08 13:52:18;;;;;;;12.52;8.25;;;21.40;99.90;;;;;;5020839;28;20042;-68
2022/10/08 13:54:44;;;;;;;16.60;9.13;;;21.40;99.90;;;;;;5016859;28;20498;-65